sensor_id;sensor_type;location;lat;lon;timestamp;P1;durP1;ratioP1;P2;durP2;ratioP2
11334;SDS011;5722;42.620;23.374;2022-12-18T00:08:54;6.27;;;5.60;;
11334;SDS011;5722;42.620;23.374;2022-12-18T00:17:30;6.03;;;5.20;;
11334;SDS011;5722;42.620;23.374;2022-12-18T00:23:28;5.40;;;4.73;;
11334;SDS011;5722;42.620;23.374;2022-12-18T00:38:27;6.30;;;5.37;;
11334;SDS011;5722;42.620;23.374;2022-12-18T00:41:00;5.67;;;5.07;;
11334;SDS011;5722;42.620;23.374;2022-12-18T00:46:35;6.00;;;5.30;;
11334;SDS011;5722;42.620;23.374;2022-12-18T00:52:41;6.27;;;5.60;;
11334;SDS011;5722;42.620;23.374;2022-12-18T01:16:38;6.23;;;5.63;;
11334;SDS011;5722;42.620;23.374;2022-12-18T01:31:26;10.00;;;7.13;;
11334;SDS011;5722;42.620;23.374;2022-12-18T01:34:15;11.40;;;6.67;;
11334;SDS011;5722;42.620;23.374;2022-12-18T01:36:46;8.50;;;6.80;;
11334;SDS011;5722;42.620;23.374;2022-12-18T01:39:29;9.60;;;7.17;;
11334;SDS011;5722;42.620;23.374;2022-12-18T01:45:08;9.87;;;7.73;;
11334;SDS011;5722;42.620;23.374;2022-12-18T01:47:49;8.03;;;7.07;;
11334;SDS011;5722;42.620;23.374;2022-12-18T01:50:34;8.93;;;7.20;;
11334;SDS011;5722;42.620;23.374;2022-12-18T01:53:15;9.60;;;7.27;;
11334;SDS011;5722;42.620;23.374;2022-12-18T01:56:00;9.17;;;7.80;;
11334;SDS011;5722;42.620;23.374;2022-12-18T02:20:12;10.10;;;8.57;;
11334;SDS011;5722;42.620;23.374;2022-12-18T02:28:56;11.13;;;8.70;;
11334;SDS011;5722;42.620;23.374;2022-12-18T02:32:00;10.30;;;8.37;;
11334;SDS011;5722;42.620;23.374;2022-12-18T02:34:34;10.33;;;7.93;;
11334;SDS011;5722;42.620;23.374;2022-12-18T02:40:23;9.97;;;8.60;;
11334;SDS011;5722;42.620;23.374;2022-12-18T02:42:55;11.40;;;8.17;;
11334;SDS011;5722;42.620;23.374;2022-12-18T02:58:50;10.13;;;8.77;;
11334;SDS011;5722;42.620;23.374;2022-12-18T03:04:42;10.00;;;8.43;;
11334;SDS011;5722;42.620;23.374;2022-12-18T03:10:19;9.50;;;8.03;;
11334;SDS011;5722;42.620;23.374;2022-12-18T03:13:00;9.03;;;7.63;;
11334;SDS011;5722;42.620;23.374;2022-12-18T03:18:51;11.57;;;7.97;;
11334;SDS011;5722;42.620;23.374;2022-12-18T03:21:27;10.03;;;8.10;;
11334;SDS011;5722;42.620;23.374;2022-12-18T03:23:55;11.40;;;8.43;;
11334;SDS011;5722;42.620;23.374;2022-12-18T03:29:28;10.13;;;8.23;;
11334;SDS011;5722;42.620;23.374;2022-12-18T03:35:11;9.47;;;8.03;;
11334;SDS011;5722;42.620;23.374;2022-12-18T03:59:41;7.03;;;5.90;;
11334;SDS011;5722;42.620;23.374;2022-12-18T04:02:40;8.20;;;6.87;;
11334;SDS011;5722;42.620;23.374;2022-12-18T04:20:43;7.97;;;6.47;;
11334;SDS011;5722;42.620;23.374;2022-12-18T04:32:33;6.43;;;5.70;;
11334;SDS011;5722;42.620;23.374;2022-12-18T04:41:46;7.47;;;5.77;;
11334;SDS011;5722;42.620;23.374;2022-12-18T04:50:33;8.27;;;5.70;;
11334;SDS011;5722;42.620;23.374;2022-12-18T04:59:49;8.73;;;6.57;;
11334;SDS011;5722;42.620;23.374;2022-12-18T05:02:22;8.50;;;6.30;;
11334;SDS011;5722;42.620;23.374;2022-12-18T05:05:16;9.17;;;7.20;;
11334;SDS011;5722;42.620;23.374;2022-12-18T05:17:25;9.33;;;7.20;;
11334;SDS011;5722;42.620;23.374;2022-12-18T05:22:59;9.47;;;6.80;;
11334;SDS011;5722;42.620;23.374;2022-12-18T05:31:29;10.37;;;7.43;;
11334;SDS011;5722;42.620;23.374;2022-12-18T05:34:11;9.10;;;7.03;;
11334;SDS011;5722;42.620;23.374;2022-12-18T05:36:39;13.57;;;8.70;;
11334;SDS011;5722;42.620;23.374;2022-12-18T05:39:14;11.00;;;8.23;;
11334;SDS011;5722;42.620;23.374;2022-12-18T05:41:44;13.23;;;8.50;;
11334;SDS011;5722;42.620;23.374;2022-12-18T05:47:03;10.03;;;8.00;;
11334;SDS011;5722;42.620;23.374;2022-12-18T06:01:43;10.77;;;7.47;;
11334;SDS011;5722;42.620;23.374;2022-12-18T06:07:31;12.63;;;7.87;;
11334;SDS011;5722;42.620;23.374;2022-12-18T06:19:03;11.87;;;9.47;;
11334;SDS011;5722;42.620;23.374;2022-12-18T06:27:40;11.70;;;8.80;;
11334;SDS011;5722;42.620;23.374;2022-12-18T06:30:11;13.20;;;8.80;;
11334;SDS011;5722;42.620;23.374;2022-12-18T06:38:58;9.63;;;7.93;;
11334;SDS011;5722;42.620;23.374;2022-12-18T06:41:44;10.87;;;7.87;;
11334;SDS011;5722;42.620;23.374;2022-12-18T06:47:35;12.57;;;8.53;;
11334;SDS011;5722;42.620;23.374;2022-12-18T06:50:06;11.60;;;8.37;;
11334;SDS011;5722;42.620;23.374;2022-12-18T06:55:27;13.27;;;9.33;;
11334;SDS011;5722;42.620;23.374;2022-12-18T06:58:01;13.87;;;10.00;;
11334;SDS011;5722;42.620;23.374;2022-12-18T07:03:18;10.13;;;7.43;;
11334;SDS011;5722;42.620;23.374;2022-12-18T07:05:58;10.13;;;7.53;;
11334;SDS011;5722;42.620;23.374;2022-12-18T07:08:31;10.87;;;8.13;;
11334;SDS011;5722;42.620;23.374;2022-12-18T07:20:11;11.33;;;8.17;;
11334;SDS011;5722;42.620;23.374;2022-12-18T07:22:57;11.30;;;8.37;;
11334;SDS011;5722;42.620;23.374;2022-12-18T07:25:38;10.33;;;8.07;;
11334;SDS011;5722;42.620;23.374;2022-12-18T07:28:19;13.60;;;8.17;;
11334;SDS011;5722;42.620;23.374;2022-12-18T07:30:57;10.40;;;8.20;;
11334;SDS011;5722;42.620;23.374;2022-12-18T07:33:38;10.07;;;8.20;;
11334;SDS011;5722;42.620;23.374;2022-12-18T07:36:18;13.07;;;8.90;;
11334;SDS011;5722;42.620;23.374;2022-12-18T07:39:02;10.37;;;8.03;;
11334;SDS011;5722;42.620;23.374;2022-12-18T07:41:36;12.10;;;8.27;;
11334;SDS011;5722;42.620;23.374;2022-12-18T07:44:29;15.27;;;8.80;;
11334;SDS011;5722;42.620;23.374;2022-12-18T07:47:07;10.67;;;8.10;;
11334;SDS011;5722;42.620;23.374;2022-12-18T07:49:54;13.57;;;8.73;;
11334;SDS011;5722;42.620;23.374;2022-12-18T08:06:15;12.97;;;8.93;;
11334;SDS011;5722;42.620;23.374;2022-12-18T08:11:29;14.97;;;10.50;;
11334;SDS011;5722;42.620;23.374;2022-12-18T08:14:10;14.00;;;10.63;;
11334;SDS011;5722;42.620;23.374;2022-12-18T08:16:47;15.57;;;10.70;;
11334;SDS011;5722;42.620;23.374;2022-12-18T08:27:55;14.83;;;10.33;;
11334;SDS011;5722;42.620;23.374;2022-12-18T08:30:28;16.03;;;11.33;;
11334;SDS011;5722;42.620;23.374;2022-12-18T08:33:10;14.37;;;10.37;;
11334;SDS011;5722;42.620;23.374;2022-12-18T08:35:51;15.27;;;10.93;;
11334;SDS011;5722;42.620;23.374;2022-12-18T08:38:32;16.40;;;11.37;;
11334;SDS011;5722;42.620;23.374;2022-12-18T08:41:22;16.87;;;11.33;;
11334;SDS011;5722;42.620;23.374;2022-12-18T08:49:49;17.13;;;10.97;;
11334;SDS011;5722;42.620;23.374;2022-12-18T08:52:21;14.47;;;10.67;;
11334;SDS011;5722;42.620;23.374;2022-12-18T08:54:50;17.13;;;11.70;;
11334;SDS011;5722;42.620;23.374;2022-12-18T08:57:24;14.07;;;10.67;;
11334;SDS011;5722;42.620;23.374;2022-12-18T09:00:02;15.37;;;11.27;;
11334;SDS011;5722;42.620;23.374;2022-12-18T09:02:39;17.80;;;12.10;;
11334;SDS011;5722;42.620;23.374;2022-12-18T09:05:22;17.73;;;12.57;;
11334;SDS011;5722;42.620;23.374;2022-12-18T09:07:52;17.93;;;12.43;;
11334;SDS011;5722;42.620;23.374;2022-12-18T09:10:24;20.57;;;12.93;;
11334;SDS011;5722;42.620;23.374;2022-12-18T09:15:52;17.97;;;12.63;;
11334;SDS011;5722;42.620;23.374;2022-12-18T09:18:33;19.37;;;12.33;;
11334;SDS011;5722;42.620;23.374;2022-12-18T09:21:23;17.97;;;12.87;;
11334;SDS011;5722;42.620;23.374;2022-12-18T09:23:56;19.87;;;14.33;;
11334;SDS011;5722;42.620;23.374;2022-12-18T09:26:38;19.37;;;13.53;;
11334;SDS011;5722;42.620;23.374;2022-12-18T09:29:24;21.20;;;13.70;;
11334;SDS011;5722;42.620;23.374;2022-12-18T09:31:57;18.30;;;14.13;;
11334;SDS011;5722;42.620;23.374;2022-12-18T09:34:37;20.73;;;14.97;;
11334;SDS011;5722;42.620;23.374;2022-12-18T09:42:54;20.30;;;14.10;;
11334;SDS011;5722;42.620;23.374;2022-12-18T09:45:32;19.87;;;14.50;;
11334;SDS011;5722;42.620;23.374;2022-12-18T09:48:08;18.40;;;13.30;;
11334;SDS011;5722;42.620;23.374;2022-12-18T09:50:47;20.30;;;14.57;;
11334;SDS011;5722;42.620;23.374;2022-12-18T09:53:22;19.43;;;13.60;;
11334;SDS011;5722;42.620;23.374;2022-12-18T09:56:10;20.43;;;13.80;;
11334;SDS011;5722;42.620;23.374;2022-12-18T09:59:02;21.47;;;14.50;;
11334;SDS011;5722;42.620;23.374;2022-12-18T10:01:45;17.87;;;13.13;;
11334;SDS011;5722;42.620;23.374;2022-12-18T10:04:33;21.13;;;13.37;;
11334;SDS011;5722;42.620;23.374;2022-12-18T10:07:19;22.13;;;14.90;;
11334;SDS011;5722;42.620;23.374;2022-12-18T10:09:57;19.20;;;13.90;;
11334;SDS011;5722;42.620;23.374;2022-12-18T10:12:32;21.60;;;13.27;;
11334;SDS011;5722;42.620;23.374;2022-12-18T10:15:22;20.47;;;13.10;;
11334;SDS011;5722;42.620;23.374;2022-12-18T10:17:54;16.90;;;11.27;;
11334;SDS011;5722;42.620;23.374;2022-12-18T10:21:06;16.73;;;11.93;;
11334;SDS011;5722;42.620;23.374;2022-12-18T10:23:56;16.87;;;11.37;;
11334;SDS011;5722;42.620;23.374;2022-12-18T10:29:54;14.93;;;10.53;;
11334;SDS011;5722;42.620;23.374;2022-12-18T10:32:42;18.40;;;12.13;;
11334;SDS011;5722;42.620;23.374;2022-12-18T10:35:25;18.13;;;11.77;;
11334;SDS011;5722;42.620;23.374;2022-12-18T10:41:40;16.87;;;11.90;;
11334;SDS011;5722;42.620;23.374;2022-12-18T10:44:47;18.60;;;12.80;;
11334;SDS011;5722;42.620;23.374;2022-12-18T10:47:37;20.17;;;12.37;;
11334;SDS011;5722;42.620;23.374;2022-12-18T10:53:13;19.33;;;12.77;;
11334;SDS011;5722;42.620;23.374;2022-12-18T10:56:00;19.20;;;13.50;;
11334;SDS011;5722;42.620;23.374;2022-12-18T10:58:38;18.33;;;11.63;;
11334;SDS011;5722;42.620;23.374;2022-12-18T11:01:12;18.20;;;12.03;;
11334;SDS011;5722;42.620;23.374;2022-12-18T11:04:13;17.10;;;11.23;;
11334;SDS011;5722;42.620;23.374;2022-12-18T11:07:07;15.27;;;10.60;;
11334;SDS011;5722;42.620;23.374;2022-12-18T11:12:51;16.77;;;10.33;;
11334;SDS011;5722;42.620;23.374;2022-12-18T11:15:32;16.67;;;11.13;;
11334;SDS011;5722;42.620;23.374;2022-12-18T11:20:56;16.43;;;10.40;;
11334;SDS011;5722;42.620;23.374;2022-12-18T11:23:33;16.10;;;10.97;;
11334;SDS011;5722;42.620;23.374;2022-12-18T11:26:05;14.93;;;10.00;;
11334;SDS011;5722;42.620;23.374;2022-12-18T11:29:07;16.57;;;10.07;;
11334;SDS011;5722;42.620;23.374;2022-12-18T11:31:46;17.07;;;9.90;;
11334;SDS011;5722;42.620;23.374;2022-12-18T11:34:26;14.80;;;10.13;;
11334;SDS011;5722;42.620;23.374;2022-12-18T11:37:10;15.67;;;10.77;;
11334;SDS011;5722;42.620;23.374;2022-12-18T11:39:54;15.03;;;10.53;;
11334;SDS011;5722;42.620;23.374;2022-12-18T11:42:39;15.07;;;10.87;;
11334;SDS011;5722;42.620;23.374;2022-12-18T11:48:12;14.70;;;10.47;;
11334;SDS011;5722;42.620;23.374;2022-12-18T11:50:55;15.60;;;9.77;;
11334;SDS011;5722;42.620;23.374;2022-12-18T11:53:30;15.20;;;9.93;;
11334;SDS011;5722;42.620;23.374;2022-12-18T11:56:29;13.83;;;10.27;;
11334;SDS011;5722;42.620;23.374;2022-12-18T11:59:08;14.13;;;9.83;;
11334;SDS011;5722;42.620;23.374;2022-12-18T12:01:52;13.10;;;9.30;;
11334;SDS011;5722;42.620;23.374;2022-12-18T12:04:32;13.37;;;9.60;;
11334;SDS011;5722;42.620;23.374;2022-12-18T12:07:21;14.90;;;9.80;;
11334;SDS011;5722;42.620;23.374;2022-12-18T12:10:18;13.03;;;9.40;;
11334;SDS011;5722;42.620;23.374;2022-12-18T12:13:19;14.80;;;10.40;;
11334;SDS011;5722;42.620;23.374;2022-12-18T12:24:36;14.83;;;9.83;;
11334;SDS011;5722;42.620;23.374;2022-12-18T12:27:32;17.27;;;11.03;;
11334;SDS011;5722;42.620;23.374;2022-12-18T12:30:26;14.33;;;10.10;;
11334;SDS011;5722;42.620;23.374;2022-12-18T12:33:19;14.77;;;9.77;;
11334;SDS011;5722;42.620;23.374;2022-12-18T12:36:13;17.33;;;11.07;;
11334;SDS011;5722;42.620;23.374;2022-12-18T12:38:50;16.57;;;10.43;;
11334;SDS011;5722;42.620;23.374;2022-12-18T12:41:39;18.33;;;11.47;;
11334;SDS011;5722;42.620;23.374;2022-12-18T12:44:39;14.50;;;10.53;;
11334;SDS011;5722;42.620;23.374;2022-12-18T12:47:17;20.33;;;10.17;;
11334;SDS011;5722;42.620;23.374;2022-12-18T12:50:24;16.93;;;10.90;;
11334;SDS011;5722;42.620;23.374;2022-12-18T12:53:05;16.77;;;10.73;;
11334;SDS011;5722;42.620;23.374;2022-12-18T12:55:41;17.87;;;11.87;;
11334;SDS011;5722;42.620;23.374;2022-12-18T12:58:36;16.40;;;10.97;;
11334;SDS011;5722;42.620;23.374;2022-12-18T13:01:17;17.80;;;10.57;;
11334;SDS011;5722;42.620;23.374;2022-12-18T13:04:11;17.37;;;11.37;;
11334;SDS011;5722;42.620;23.374;2022-12-18T13:07:08;16.47;;;10.90;;
11334;SDS011;5722;42.620;23.374;2022-12-18T13:12:54;20.43;;;12.57;;
11334;SDS011;5722;42.620;23.374;2022-12-18T13:18:40;18.27;;;12.17;;
11334;SDS011;5722;42.620;23.374;2022-12-18T13:21:33;23.53;;;12.87;;
11334;SDS011;5722;42.620;23.374;2022-12-18T13:24:23;16.73;;;12.33;;
11334;SDS011;5722;42.620;23.374;2022-12-18T13:26:55;19.53;;;12.73;;
11334;SDS011;5722;42.620;23.374;2022-12-18T13:32:45;20.27;;;14.20;;
11334;SDS011;5722;42.620;23.374;2022-12-18T13:46:46;19.27;;;13.27;;
11334;SDS011;5722;42.620;23.374;2022-12-18T13:49:21;20.33;;;13.60;;
11334;SDS011;5722;42.620;23.374;2022-12-18T13:51:59;20.97;;;13.83;;
11334;SDS011;5722;42.620;23.374;2022-12-18T13:55:14;18.83;;;12.23;;
11334;SDS011;5722;42.620;23.374;2022-12-18T13:58:05;18.97;;;12.80;;
11334;SDS011;5722;42.620;23.374;2022-12-18T14:00:41;19.70;;;13.60;;
11334;SDS011;5722;42.620;23.374;2022-12-18T14:06:42;21.97;;;13.27;;
11334;SDS011;5722;42.620;23.374;2022-12-18T14:09:19;21.50;;;15.20;;
11334;SDS011;5722;42.620;23.374;2022-12-18T14:11:54;19.20;;;12.27;;
11334;SDS011;5722;42.620;23.374;2022-12-18T14:14:54;23.00;;;14.13;;
11334;SDS011;5722;42.620;23.374;2022-12-18T14:17:27;23.07;;;15.03;;
11334;SDS011;5722;42.620;23.374;2022-12-18T14:20:00;19.10;;;12.93;;
11334;SDS011;5722;42.620;23.374;2022-12-18T14:31:37;22.13;;;14.33;;
11334;SDS011;5722;42.620;23.374;2022-12-18T14:34:04;19.67;;;13.37;;
11334;SDS011;5722;42.620;23.374;2022-12-18T14:36:44;19.20;;;13.17;;
11334;SDS011;5722;42.620;23.374;2022-12-18T14:39:31;17.23;;;12.47;;
11334;SDS011;5722;42.620;23.374;2022-12-18T14:42:17;18.30;;;12.17;;
11334;SDS011;5722;42.620;23.374;2022-12-18T14:47:47;17.93;;;12.63;;
11334;SDS011;5722;42.620;23.374;2022-12-18T14:50:16;19.87;;;11.43;;
11334;SDS011;5722;42.620;23.374;2022-12-18T14:52:55;27.37;;;16.40;;
11334;SDS011;5722;42.620;23.374;2022-12-18T14:55:43;25.03;;;15.83;;
11334;SDS011;5722;42.620;23.374;2022-12-18T14:58:55;28.93;;;15.30;;
11334;SDS011;5722;42.620;23.374;2022-12-18T15:01:50;22.20;;;14.20;;
11334;SDS011;5722;42.620;23.374;2022-12-18T15:35:18;15.53;;;11.03;;
11334;SDS011;5722;42.620;23.374;2022-12-18T15:37:55;17.67;;;11.87;;
11334;SDS011;5722;42.620;23.374;2022-12-18T15:40:48;18.77;;;12.80;;
11334;SDS011;5722;42.620;23.374;2022-12-18T15:43:37;17.57;;;11.67;;
11334;SDS011;5722;42.620;23.374;2022-12-18T15:46:22;18.60;;;12.27;;
11334;SDS011;5722;42.620;23.374;2022-12-18T15:49:15;20.73;;;13.00;;
11334;SDS011;5722;42.620;23.374;2022-12-18T15:57:44;15.03;;;9.83;;
11334;SDS011;5722;42.620;23.374;2022-12-18T16:00:34;15.67;;;9.90;;
11334;SDS011;5722;42.620;23.374;2022-12-18T16:06:56;17.60;;;9.90;;
11334;SDS011;5722;42.620;23.374;2022-12-18T16:09:39;18.03;;;10.77;;
11334;SDS011;5722;42.620;23.374;2022-12-18T16:30:47;17.37;;;11.13;;
11334;SDS011;5722;42.620;23.374;2022-12-18T16:33:23;15.77;;;9.83;;
11334;SDS011;5722;42.620;23.374;2022-12-18T16:36:22;16.37;;;10.00;;
11334;SDS011;5722;42.620;23.374;2022-12-18T16:42:10;15.57;;;10.33;;
11334;SDS011;5722;42.620;23.374;2022-12-18T16:44:57;14.63;;;9.73;;
11334;SDS011;5722;42.620;23.374;2022-12-18T16:53:49;13.83;;;9.30;;
11334;SDS011;5722;42.620;23.374;2022-12-18T16:56:37;14.53;;;10.37;;
11334;SDS011;5722;42.620;23.374;2022-12-18T16:59:15;14.93;;;9.43;;
11334;SDS011;5722;42.620;23.374;2022-12-18T17:02:02;14.03;;;9.53;;
11334;SDS011;5722;42.620;23.374;2022-12-18T17:10:36;17.80;;;10.40;;
11334;SDS011;5722;42.620;23.374;2022-12-18T17:16:20;13.67;;;9.17;;
11334;SDS011;5722;42.620;23.374;2022-12-18T17:19:00;14.70;;;9.50;;
11334;SDS011;5722;42.620;23.374;2022-12-18T17:24:55;15.23;;;9.60;;
11334;SDS011;5722;42.620;23.374;2022-12-18T17:27:44;14.83;;;9.60;;
11334;SDS011;5722;42.620;23.374;2022-12-18T17:30:34;13.70;;;10.40;;
11334;SDS011;5722;42.620;23.374;2022-12-18T17:33:26;17.33;;;9.90;;
11334;SDS011;5722;42.620;23.374;2022-12-18T17:36:18;14.87;;;9.97;;
11334;SDS011;5722;42.620;23.374;2022-12-18T17:39:04;16.37;;;9.87;;
11334;SDS011;5722;42.620;23.374;2022-12-18T17:42:14;18.20;;;10.40;;
11334;SDS011;5722;42.620;23.374;2022-12-18T17:51:02;14.17;;;9.67;;
11334;SDS011;5722;42.620;23.374;2022-12-18T17:53:55;17.90;;;10.37;;
11334;SDS011;5722;42.620;23.374;2022-12-18T17:59:45;18.47;;;9.40;;
11334;SDS011;5722;42.620;23.374;2022-12-18T18:03:01;15.10;;;9.90;;
11334;SDS011;5722;42.620;23.374;2022-12-18T18:05:49;15.03;;;9.97;;
11334;SDS011;5722;42.620;23.374;2022-12-18T18:08:27;15.40;;;10.90;;
11334;SDS011;5722;42.620;23.374;2022-12-18T18:27:05;18.93;;;12.63;;
11334;SDS011;5722;42.620;23.374;2022-12-18T18:29:49;14.87;;;10.67;;
11334;SDS011;5722;42.620;23.374;2022-12-18T18:32:37;16.23;;;10.83;;
11334;SDS011;5722;42.620;23.374;2022-12-18T18:35:26;16.97;;;10.33;;
11334;SDS011;5722;42.620;23.374;2022-12-18T18:38:23;15.23;;;9.70;;
11334;SDS011;5722;42.620;23.374;2022-12-18T18:41:00;14.80;;;9.83;;
11334;SDS011;5722;42.620;23.374;2022-12-18T18:46:37;15.17;;;10.10;;
11334;SDS011;5722;42.620;23.374;2022-12-18T18:50:11;15.13;;;10.13;;
11334;SDS011;5722;42.620;23.374;2022-12-18T18:52:47;16.23;;;10.30;;
11334;SDS011;5722;42.620;23.374;2022-12-18T18:55:37;18.97;;;11.20;;
11334;SDS011;5722;42.620;23.374;2022-12-18T19:01:33;21.30;;;12.03;;
11334;SDS011;5722;42.620;23.374;2022-12-18T19:07:25;17.07;;;10.10;;
11334;SDS011;5722;42.620;23.374;2022-12-18T19:13:42;18.53;;;11.27;;
11334;SDS011;5722;42.620;23.374;2022-12-18T19:16:23;19.07;;;12.43;;
11334;SDS011;5722;42.620;23.374;2022-12-18T19:19:05;21.70;;;11.97;;
11334;SDS011;5722;42.620;23.374;2022-12-18T19:21:59;16.93;;;11.43;;
11334;SDS011;5722;42.620;23.374;2022-12-18T19:33:39;17.87;;;11.93;;
11334;SDS011;5722;42.620;23.374;2022-12-18T19:36:31;18.70;;;12.30;;
11334;SDS011;5722;42.620;23.374;2022-12-18T19:39:10;18.07;;;11.43;;
11334;SDS011;5722;42.620;23.374;2022-12-18T19:41:50;18.10;;;11.73;;
11334;SDS011;5722;42.620;23.374;2022-12-18T19:44:39;18.87;;;12.10;;
11334;SDS011;5722;42.620;23.374;2022-12-18T19:47:33;17.57;;;11.73;;
11334;SDS011;5722;42.620;23.374;2022-12-18T19:58:57;18.93;;;12.20;;
11334;SDS011;5722;42.620;23.374;2022-12-18T20:01:42;18.27;;;12.13;;
11334;SDS011;5722;42.620;23.374;2022-12-18T20:04:16;16.80;;;11.10;;
11334;SDS011;5722;42.620;23.374;2022-12-18T20:07:18;19.17;;;11.57;;
11334;SDS011;5722;42.620;23.374;2022-12-18T20:10:04;16.87;;;11.53;;
11334;SDS011;5722;42.620;23.374;2022-12-18T20:12:40;18.40;;;11.40;;
11334;SDS011;5722;42.620;23.374;2022-12-18T20:26:50;17.97;;;11.37;;
11334;SDS011;5722;42.620;23.374;2022-12-18T20:32:18;19.27;;;10.90;;
11334;SDS011;5722;42.620;23.374;2022-12-18T20:35:04;19.67;;;12.10;;
11334;SDS011;5722;42.620;23.374;2022-12-18T20:37:41;18.37;;;11.70;;
11334;SDS011;5722;42.620;23.374;2022-12-18T20:40:38;19.63;;;12.10;;
11334;SDS011;5722;42.620;23.374;2022-12-18T20:46:04;18.77;;;11.57;;
11334;SDS011;5722;42.620;23.374;2022-12-18T20:48:43;19.47;;;11.70;;
11334;SDS011;5722;42.620;23.374;2022-12-18T20:51:25;19.23;;;12.07;;
11334;SDS011;5722;42.620;23.374;2022-12-18T20:53:54;18.00;;;11.63;;
11334;SDS011;5722;42.620;23.374;2022-12-18T20:56:37;20.60;;;12.27;;
11334;SDS011;5722;42.620;23.374;2022-12-18T21:02:03;20.53;;;11.73;;
11334;SDS011;5722;42.620;23.374;2022-12-18T21:04:32;22.23;;;12.27;;
11334;SDS011;5722;42.620;23.374;2022-12-18T21:10:11;17.57;;;11.50;;
11334;SDS011;5722;42.620;23.374;2022-12-18T21:12:42;20.67;;;13.13;;
11334;SDS011;5722;42.620;23.374;2022-12-18T21:15:13;18.13;;;11.27;;
11334;SDS011;5722;42.620;23.374;2022-12-18T21:17:42;18.67;;;11.90;;
11334;SDS011;5722;42.620;23.374;2022-12-18T21:20:22;18.23;;;12.00;;
11334;SDS011;5722;42.620;23.374;2022-12-18T21:22:58;18.00;;;11.80;;
11334;SDS011;5722;42.620;23.374;2022-12-18T21:25:52;16.10;;;9.87;;
11334;SDS011;5722;42.620;23.374;2022-12-18T21:28:27;18.57;;;11.10;;
11334;SDS011;5722;42.620;23.374;2022-12-18T21:30:57;16.90;;;10.87;;
11334;SDS011;5722;42.620;23.374;2022-12-18T21:33:33;17.93;;;11.70;;
11334;SDS011;5722;42.620;23.374;2022-12-18T21:38:44;22.03;;;11.77;;
11334;SDS011;5722;42.620;23.374;2022-12-18T21:44:20;18.40;;;12.00;;
11334;SDS011;5722;42.620;23.374;2022-12-18T21:47:03;17.17;;;11.27;;
11334;SDS011;5722;42.620;23.374;2022-12-18T21:49:35;18.47;;;12.27;;
11334;SDS011;5722;42.620;23.374;2022-12-18T21:52:14;16.93;;;11.73;;
11334;SDS011;5722;42.620;23.374;2022-12-18T21:54:46;18.60;;;11.80;;
11334;SDS011;5722;42.620;23.374;2022-12-18T21:57:17;17.27;;;11.43;;
11334;SDS011;5722;42.620;23.374;2022-12-18T22:02:50;19.20;;;12.30;;
11334;SDS011;5722;42.620;23.374;2022-12-18T22:05:19;18.90;;;11.77;;
11334;SDS011;5722;42.620;23.374;2022-12-18T22:07:52;19.43;;;12.50;;
11334;SDS011;5722;42.620;23.374;2022-12-18T22:10:23;19.67;;;12.30;;
11334;SDS011;5722;42.620;23.374;2022-12-18T22:13:10;16.77;;;11.87;;
11334;SDS011;5722;42.620;23.374;2022-12-18T22:15:38;19.80;;;12.03;;
11334;SDS011;5722;42.620;23.374;2022-12-18T22:18:11;20.37;;;12.50;;
11334;SDS011;5722;42.620;23.374;2022-12-18T22:20:39;21.17;;;12.50;;
11334;SDS011;5722;42.620;23.374;2022-12-18T22:23:08;18.67;;;12.07;;
11334;SDS011;5722;42.620;23.374;2022-12-18T22:28:32;19.60;;;12.07;;
11334;SDS011;5722;42.620;23.374;2022-12-18T22:31:19;18.57;;;12.30;;
11334;SDS011;5722;42.620;23.374;2022-12-18T22:33:53;19.20;;;12.37;;
11334;SDS011;5722;42.620;23.374;2022-12-18T22:36:31;17.20;;;11.63;;
11334;SDS011;5722;42.620;23.374;2022-12-18T22:42:19;20.00;;;12.57;;
11334;SDS011;5722;42.620;23.374;2022-12-18T22:47:46;17.43;;;11.43;;
11334;SDS011;5722;42.620;23.374;2022-12-18T22:50:30;20.33;;;12.27;;
11334;SDS011;5722;42.620;23.374;2022-12-18T22:53:03;20.17;;;12.00;;
11334;SDS011;5722;42.620;23.374;2022-12-18T22:55:40;19.27;;;11.40;;
11334;SDS011;5722;42.620;23.374;2022-12-18T22:58:10;19.53;;;11.63;;
11334;SDS011;5722;42.620;23.374;2022-12-18T23:00:40;18.20;;;11.63;;
11334;SDS011;5722;42.620;23.374;2022-12-18T23:03:13;17.13;;;10.67;;
11334;SDS011;5722;42.620;23.374;2022-12-18T23:05:52;18.93;;;12.10;;
11334;SDS011;5722;42.620;23.374;2022-12-18T23:08:28;16.93;;;11.17;;
11334;SDS011;5722;42.620;23.374;2022-12-18T23:11:02;21.13;;;11.87;;
11334;SDS011;5722;42.620;23.374;2022-12-18T23:13:32;19.60;;;11.87;;
11334;SDS011;5722;42.620;23.374;2022-12-18T23:18:55;22.80;;;13.33;;
11334;SDS011;5722;42.620;23.374;2022-12-18T23:21:29;18.87;;;12.83;;
11334;SDS011;5722;42.620;23.374;2022-12-18T23:24:00;19.73;;;12.67;;
11334;SDS011;5722;42.620;23.374;2022-12-18T23:26:51;22.33;;;13.37;;
11334;SDS011;5722;42.620;23.374;2022-12-18T23:29:23;20.57;;;12.03;;
11334;SDS011;5722;42.620;23.374;2022-12-18T23:31:56;21.37;;;13.50;;
11334;SDS011;5722;42.620;23.374;2022-12-18T23:35:01;20.07;;;13.20;;
11334;SDS011;5722;42.620;23.374;2022-12-18T23:40:16;24.37;;;13.60;;
11334;SDS011;5722;42.620;23.374;2022-12-18T23:42:49;20.70;;;13.97;;
11334;SDS011;5722;42.620;23.374;2022-12-18T23:45:22;20.17;;;13.47;;
11334;SDS011;5722;42.620;23.374;2022-12-18T23:47:58;20.67;;;13.47;;
11334;SDS011;5722;42.620;23.374;2022-12-18T23:50:27;20.40;;;12.83;;
11334;SDS011;5722;42.620;23.374;2022-12-18T23:52:55;19.97;;;13.53;;
11334;SDS011;5722;42.620;23.374;2022-12-18T23:55:27;23.03;;;13.87;;
11334;SDS011;5722;42.620;23.374;2022-12-18T23:57:58;22.93;;;13.97;;
